sensor_id;sensor_type;location;lat;lon;timestamp;P1;durP1;ratioP1;P2;durP2;ratioP2
12556;SDS011;6344;49.932;8.308;2023-04-03T00:02:20;5.83;;;4.00;;
12556;SDS011;6344;49.932;8.308;2023-04-03T00:04:47;7.00;;;6.30;;
12556;SDS011;6344;49.932;8.308;2023-04-03T00:07:13;4.40;;;4.00;;
12556;SDS011;6344;49.932;8.308;2023-04-03T00:09:42;4.37;;;4.07;;
12556;SDS011;6344;49.932;8.308;2023-04-03T00:12:08;4.87;;;4.47;;
12556;SDS011;6344;49.932;8.308;2023-04-03T00:14:35;7.57;;;5.90;;
12556;SDS011;6344;49.932;8.308;2023-04-03T00:17:02;5.80;;;5.30;;
12556;SDS011;6344;49.932;8.308;2023-04-03T00:19:29;4.87;;;4.43;;
12556;SDS011;6344;49.932;8.308;2023-04-03T00:21:55;6.13;;;5.53;;
12556;SDS011;6344;49.932;8.308;2023-04-03T00:24:22;8.37;;;7.57;;
12556;SDS011;6344;49.932;8.308;2023-04-03T00:26:50;9.53;;;7.10;;
12556;SDS011;6344;49.932;8.308;2023-04-03T00:29:17;7.37;;;6.67;;
12556;SDS011;6344;49.932;8.308;2023-04-03T00:31:43;3.60;;;3.30;;
12556;SDS011;6344;49.932;8.308;2023-04-03T00:34:10;4.30;;;3.13;;
12556;SDS011;6344;49.932;8.308;2023-04-03T00:36:37;3.63;;;3.33;;
12556;SDS011;6344;49.932;8.308;2023-04-03T00:39:03;3.90;;;3.60;;
12556;SDS011;6344;49.932;8.308;2023-04-03T00:41:31;3.93;;;3.63;;
12556;SDS011;6344;49.932;8.308;2023-04-03T00:43:59;5.30;;;4.20;;
12556;SDS011;6344;49.932;8.308;2023-04-03T00:46:25;3.93;;;3.63;;
12556;SDS011;6344;49.932;8.308;2023-04-03T00:48:52;3.60;;;3.30;;
12556;SDS011;6344;49.932;8.308;2023-04-03T00:51:19;5.50;;;3.93;;
12556;SDS011;6344;49.932;8.308;2023-04-03T00:53:50;4.07;;;3.77;;
12556;SDS011;6344;49.932;8.308;2023-04-03T00:56:21;5.20;;;4.40;;
12556;SDS011;6344;49.932;8.308;2023-04-03T00:58:51;8.47;;;6.30;;
12556;SDS011;6344;49.932;8.308;2023-04-03T01:01:24;3.50;;;3.30;;
12556;SDS011;6344;49.932;8.308;2023-04-03T01:03:52;3.63;;;3.33;;
12556;SDS011;6344;49.932;8.308;2023-04-03T01:06:21;3.53;;;3.17;;
12556;SDS011;6344;49.932;8.308;2023-04-03T01:08:52;3.23;;;3.03;;
12556;SDS011;6344;49.932;8.308;2023-04-03T01:11:19;5.63;;;3.80;;
12556;SDS011;6344;49.932;8.308;2023-04-03T01:13:46;3.20;;;2.90;;
12556;SDS011;6344;49.932;8.308;2023-04-03T01:16:14;4.70;;;4.00;;
12556;SDS011;6344;49.932;8.308;2023-04-03T01:18:42;3.90;;;3.60;;
12556;SDS011;6344;49.932;8.308;2023-04-03T01:21:14;3.40;;;3.10;;
12556;SDS011;6344;49.932;8.308;2023-04-03T01:24:09;3.53;;;3.20;;
12556;SDS011;6344;49.932;8.308;2023-04-03T01:26:44;7.23;;;3.50;;
12556;SDS011;6344;49.932;8.308;2023-04-03T01:29:11;6.10;;;3.77;;
12556;SDS011;6344;49.932;8.308;2023-04-03T01:31:47;3.37;;;3.17;;
12556;SDS011;6344;49.932;8.308;2023-04-03T01:34:15;3.50;;;3.20;;
12556;SDS011;6344;49.932;8.308;2023-04-03T01:36:42;4.47;;;3.57;;
12556;SDS011;6344;49.932;8.308;2023-04-03T01:39:08;3.43;;;3.13;;
12556;SDS011;6344;49.932;8.308;2023-04-03T01:41:35;3.63;;;3.33;;
12556;SDS011;6344;49.932;8.308;2023-04-03T01:44:02;3.20;;;3.00;;
12556;SDS011;6344;49.932;8.308;2023-04-03T01:46:30;3.43;;;3.03;;
12556;SDS011;6344;49.932;8.308;2023-04-03T01:48:58;3.70;;;3.40;;
12556;SDS011;6344;49.932;8.308;2023-04-03T01:51:24;3.40;;;3.10;;
12556;SDS011;6344;49.932;8.308;2023-04-03T01:53:51;3.03;;;2.83;;
12556;SDS011;6344;49.932;8.308;2023-04-03T01:56:18;2.93;;;2.73;;
12556;SDS011;6344;49.932;8.308;2023-04-03T01:58:45;4.37;;;2.87;;
12556;SDS011;6344;49.932;8.308;2023-04-03T02:01:11;3.97;;;3.67;;
12556;SDS011;6344;49.932;8.308;2023-04-03T02:03:38;3.80;;;3.50;;
12556;SDS011;6344;49.932;8.308;2023-04-03T02:06:06;3.30;;;3.00;;
12556;SDS011;6344;49.932;8.308;2023-04-03T02:08:33;3.03;;;2.83;;
12556;SDS011;6344;49.932;8.308;2023-04-03T02:11:00;7.60;;;3.67;;
12556;SDS011;6344;49.932;8.308;2023-04-03T02:13:26;4.47;;;2.90;;
12556;SDS011;6344;49.932;8.308;2023-04-03T02:15:53;3.70;;;3.03;;
12556;SDS011;6344;49.932;8.308;2023-04-03T02:18:20;3.30;;;2.73;;
12556;SDS011;6344;49.932;8.308;2023-04-03T02:20:46;3.53;;;3.17;;
12556;SDS011;6344;49.932;8.308;2023-04-03T02:23:14;3.57;;;3.07;;
12556;SDS011;6344;49.932;8.308;2023-04-03T02:25:41;3.30;;;2.90;;
12556;SDS011;6344;49.932;8.308;2023-04-03T02:28:08;3.13;;;2.57;;
12556;SDS011;6344;49.932;8.308;2023-04-03T02:30:35;2.90;;;2.53;;
12556;SDS011;6344;49.932;8.308;2023-04-03T02:33:01;3.83;;;3.53;;
12556;SDS011;6344;49.932;8.308;2023-04-03T02:35:28;2.80;;;2.60;;
12556;SDS011;6344;49.932;8.308;2023-04-03T02:37:55;4.60;;;3.50;;
12556;SDS011;6344;49.932;8.308;2023-04-03T02:40:23;3.40;;;2.63;;
12556;SDS011;6344;49.932;8.308;2023-04-03T02:42:49;3.13;;;2.73;;
12556;SDS011;6344;49.932;8.308;2023-04-03T02:45:16;4.23;;;3.60;;
12556;SDS011;6344;49.932;8.308;2023-04-03T02:47:43;3.23;;;3.00;;
12556;SDS011;6344;49.932;8.308;2023-04-03T02:50:09;5.20;;;2.67;;
12556;SDS011;6344;49.932;8.308;2023-04-03T02:52:36;2.87;;;2.57;;
12556;SDS011;6344;49.932;8.308;2023-04-03T02:55:03;3.03;;;2.73;;
12556;SDS011;6344;49.932;8.308;2023-04-03T02:57:32;3.97;;;2.80;;
12556;SDS011;6344;49.932;8.308;2023-04-03T02:59:59;3.77;;;2.10;;
12556;SDS011;6344;49.932;8.308;2023-04-03T03:02:25;3.53;;;3.23;;
12556;SDS011;6344;49.932;8.308;2023-04-03T03:04:52;3.40;;;3.10;;
12556;SDS011;6344;49.932;8.308;2023-04-03T03:07:18;5.50;;;3.37;;
12556;SDS011;6344;49.932;8.308;2023-04-03T03:09:45;2.53;;;2.33;;
12556;SDS011;6344;49.932;8.308;2023-04-03T03:12:12;4.43;;;3.17;;
12556;SDS011;6344;49.932;8.308;2023-04-03T03:14:40;3.60;;;3.30;;
12556;SDS011;6344;49.932;8.308;2023-04-03T03:17:07;3.23;;;3.00;;
12556;SDS011;6344;49.932;8.308;2023-04-03T03:19:34;3.93;;;3.03;;
12556;SDS011;6344;49.932;8.308;2023-04-03T03:22:01;4.70;;;3.30;;
12556;SDS011;6344;49.932;8.308;2023-04-03T03:24:27;3.13;;;2.83;;
12556;SDS011;6344;49.932;8.308;2023-04-03T03:26:54;4.80;;;3.40;;
12556;SDS011;6344;49.932;8.308;2023-04-03T03:29:21;3.83;;;2.93;;
12556;SDS011;6344;49.932;8.308;2023-04-03T03:31:49;3.00;;;2.70;;
12556;SDS011;6344;49.932;8.308;2023-04-03T03:34:15;3.30;;;3.00;;
12556;SDS011;6344;49.932;8.308;2023-04-03T03:36:42;5.27;;;3.63;;
12556;SDS011;6344;49.932;8.308;2023-04-03T03:39:09;4.93;;;3.60;;
12556;SDS011;6344;49.932;8.308;2023-04-03T03:41:36;4.80;;;3.30;;
12556;SDS011;6344;49.932;8.308;2023-04-03T03:44:03;6.10;;;2.87;;
12556;SDS011;6344;49.932;8.308;2023-04-03T03:46:30;3.07;;;2.87;;
12556;SDS011;6344;49.932;8.308;2023-04-03T03:48:58;4.33;;;3.17;;
12556;SDS011;6344;49.932;8.308;2023-04-03T03:51:25;3.53;;;2.67;;
12556;SDS011;6344;49.932;8.308;2023-04-03T03:53:52;2.37;;;2.17;;
12556;SDS011;6344;49.932;8.308;2023-04-03T03:56:18;3.23;;;2.93;;
12556;SDS011;6344;49.932;8.308;2023-04-03T03:58:45;3.60;;;3.30;;
12556;SDS011;6344;49.932;8.308;2023-04-03T04:01:12;6.47;;;2.90;;
12556;SDS011;6344;49.932;8.308;2023-04-03T04:03:39;6.10;;;3.00;;
12556;SDS011;6344;49.932;8.308;2023-04-03T04:06:07;2.43;;;1.70;;
12556;SDS011;6344;49.932;8.308;2023-04-03T04:08:34;3.73;;;2.30;;
12556;SDS011;6344;49.932;8.308;2023-04-03T04:11:00;3.50;;;2.13;;
12556;SDS011;6344;49.932;8.308;2023-04-03T04:13:27;1.77;;;1.50;;
12556;SDS011;6344;49.932;8.308;2023-04-03T04:15:54;3.30;;;2.07;;
12556;SDS011;6344;49.932;8.308;2023-04-03T04:18:20;3.00;;;2.00;;
12556;SDS011;6344;49.932;8.308;2023-04-03T04:20:47;2.13;;;1.87;;
12556;SDS011;6344;49.932;8.308;2023-04-03T04:23:16;7.30;;;2.13;;
12556;SDS011;6344;49.932;8.308;2023-04-03T04:25:43;7.07;;;2.00;;
12556;SDS011;6344;49.932;8.308;2023-04-03T04:28:10;2.03;;;1.20;;
12556;SDS011;6344;49.932;8.308;2023-04-03T04:30:37;3.50;;;2.23;;
12556;SDS011;6344;49.932;8.308;2023-04-03T04:33:04;2.73;;;2.10;;
12556;SDS011;6344;49.932;8.308;2023-04-03T04:35:31;2.00;;;1.40;;
12556;SDS011;6344;49.932;8.308;2023-04-03T04:37:58;1.80;;;1.30;;
12556;SDS011;6344;49.932;8.308;2023-04-03T04:40:26;3.80;;;1.40;;
12556;SDS011;6344;49.932;8.308;2023-04-03T04:42:53;2.73;;;2.10;;
12556;SDS011;6344;49.932;8.308;2023-04-03T04:45:20;4.63;;;2.13;;
12556;SDS011;6344;49.932;8.308;2023-04-03T04:47:46;3.37;;;1.63;;
12556;SDS011;6344;49.932;8.308;2023-04-03T04:50:16;2.20;;;2.00;;
12556;SDS011;6344;49.932;8.308;2023-04-03T04:52:43;1.40;;;1.20;;
12556;SDS011;6344;49.932;8.308;2023-04-03T04:55:09;4.43;;;1.70;;
12556;SDS011;6344;49.932;8.308;2023-04-03T04:57:37;2.00;;;1.80;;
12556;SDS011;6344;49.932;8.308;2023-04-03T05:00:05;4.53;;;1.80;;
12556;SDS011;6344;49.932;8.308;2023-04-03T05:02:32;3.13;;;2.23;;
12556;SDS011;6344;49.932;8.308;2023-04-03T05:04:59;2.40;;;1.67;;
12556;SDS011;6344;49.932;8.308;2023-04-03T05:07:26;4.73;;;1.90;;
12556;SDS011;6344;49.932;8.308;2023-04-03T05:09:52;3.93;;;2.10;;
12556;SDS011;6344;49.932;8.308;2023-04-03T05:12:19;1.67;;;1.33;;
12556;SDS011;6344;49.932;8.308;2023-04-03T05:14:47;3.67;;;2.97;;
12556;SDS011;6344;49.932;8.308;2023-04-03T05:17:13;2.97;;;1.60;;
12556;SDS011;6344;49.932;8.308;2023-04-03T05:19:40;4.47;;;2.37;;
12556;SDS011;6344;49.932;8.308;2023-04-03T05:22:07;4.83;;;1.53;;
12556;SDS011;6344;49.932;8.308;2023-04-03T05:24:33;4.60;;;2.23;;
12556;SDS011;6344;49.932;8.308;2023-04-03T05:27:00;3.33;;;1.40;;
12556;SDS011;6344;49.932;8.308;2023-04-03T05:29:27;2.27;;;1.17;;
12556;SDS011;6344;49.932;8.308;2023-04-03T05:31:55;2.43;;;1.90;;
12556;SDS011;6344;49.932;8.308;2023-04-03T05:34:21;2.40;;;1.80;;
12556;SDS011;6344;49.932;8.308;2023-04-03T05:36:48;1.97;;;1.80;;
12556;SDS011;6344;49.932;8.308;2023-04-03T05:39:15;1.90;;;1.40;;
12556;SDS011;6344;49.932;8.308;2023-04-03T05:41:41;3.40;;;1.60;;
12556;SDS011;6344;49.932;8.308;2023-04-03T05:44:08;5.30;;;2.40;;
12556;SDS011;6344;49.932;8.308;2023-04-03T05:46:35;4.80;;;1.97;;
12556;SDS011;6344;49.932;8.308;2023-04-03T05:49:03;2.80;;;1.77;;
12556;SDS011;6344;49.932;8.308;2023-04-03T05:51:30;3.23;;;2.20;;
12556;SDS011;6344;49.932;8.308;2023-04-03T05:54:01;4.87;;;2.50;;
12556;SDS011;6344;49.932;8.308;2023-04-03T05:56:31;3.30;;;2.63;;
12556;SDS011;6344;49.932;8.308;2023-04-03T05:58:58;5.57;;;2.10;;
12556;SDS011;6344;49.932;8.308;2023-04-03T06:01:25;2.33;;;1.93;;
12556;SDS011;6344;49.932;8.308;2023-04-03T06:03:52;3.93;;;2.43;;
12556;SDS011;6344;49.932;8.308;2023-04-03T06:06:20;2.60;;;2.03;;
12556;SDS011;6344;49.932;8.308;2023-04-03T06:08:47;3.20;;;1.73;;
12556;SDS011;6344;49.932;8.308;2023-04-03T06:11:13;2.30;;;2.10;;
12556;SDS011;6344;49.932;8.308;2023-04-03T06:13:40;6.30;;;2.27;;
12556;SDS011;6344;49.932;8.308;2023-04-03T06:16:07;4.17;;;2.07;;
12556;SDS011;6344;49.932;8.308;2023-04-03T06:18:35;2.33;;;2.03;;
12556;SDS011;6344;49.932;8.308;2023-04-03T06:21:02;2.80;;;1.80;;
12556;SDS011;6344;49.932;8.308;2023-04-03T06:23:31;4.67;;;4.27;;
12556;SDS011;6344;49.932;8.308;2023-04-03T06:25:57;3.17;;;2.10;;
12556;SDS011;6344;49.932;8.308;2023-04-03T06:28:24;5.23;;;3.10;;
12556;SDS011;6344;49.932;8.308;2023-04-03T06:30:51;5.17;;;3.47;;
12556;SDS011;6344;49.932;8.308;2023-04-03T06:33:18;14.73;;;3.53;;
12556;SDS011;6344;49.932;8.308;2023-04-03T06:35:44;4.97;;;2.60;;
12556;SDS011;6344;49.932;8.308;2023-04-03T06:38:11;4.20;;;2.40;;
12556;SDS011;6344;49.932;8.308;2023-04-03T06:40:39;3.47;;;2.27;;
12556;SDS011;6344;49.932;8.308;2023-04-03T06:43:06;4.33;;;3.17;;
12556;SDS011;6344;49.932;8.308;2023-04-03T06:45:33;3.43;;;1.87;;
12556;SDS011;6344;49.932;8.308;2023-04-03T06:48:01;3.67;;;3.00;;
12556;SDS011;6344;49.932;8.308;2023-04-03T06:50:27;2.07;;;1.90;;
12556;SDS011;6344;49.932;8.308;2023-04-03T06:52:54;4.17;;;2.30;;
12556;SDS011;6344;49.932;8.308;2023-04-03T06:55:21;2.37;;;2.17;;
12556;SDS011;6344;49.932;8.308;2023-04-03T06:57:49;3.90;;;2.80;;
12556;SDS011;6344;49.932;8.308;2023-04-03T07:00:16;2.50;;;1.97;;
12556;SDS011;6344;49.932;8.308;2023-04-03T07:02:43;8.93;;;4.10;;
12556;SDS011;6344;49.932;8.308;2023-04-03T07:05:10;3.87;;;1.87;;
12556;SDS011;6344;49.932;8.308;2023-04-03T07:07:37;4.20;;;2.60;;
12556;SDS011;6344;49.932;8.308;2023-04-03T07:10:04;2.30;;;2.10;;
12556;SDS011;6344;49.932;8.308;2023-04-03T07:12:32;3.27;;;2.77;;
12556;SDS011;6344;49.932;8.308;2023-04-03T07:15:00;2.90;;;2.60;;
12556;SDS011;6344;49.932;8.308;2023-04-03T07:17:27;5.60;;;2.80;;
12556;SDS011;6344;49.932;8.308;2023-04-03T07:19:54;4.37;;;2.47;;
12556;SDS011;6344;49.932;8.308;2023-04-03T07:22:21;5.13;;;2.40;;
12556;SDS011;6344;49.932;8.308;2023-04-03T07:24:47;2.07;;;1.60;;
12556;SDS011;6344;49.932;8.308;2023-04-03T07:27:14;2.10;;;1.90;;
12556;SDS011;6344;49.932;8.308;2023-04-03T07:29:42;5.70;;;2.20;;
12556;SDS011;6344;49.932;8.308;2023-04-03T07:32:10;12.40;;;2.87;;
12556;SDS011;6344;49.932;8.308;2023-04-03T07:34:37;3.13;;;2.60;;
12556;SDS011;6344;49.932;8.308;2023-04-03T07:37:04;3.23;;;2.93;;
12556;SDS011;6344;49.932;8.308;2023-04-03T07:39:31;2.20;;;1.87;;
12556;SDS011;6344;49.932;8.308;2023-04-03T07:41:58;2.20;;;2.00;;
12556;SDS011;6344;49.932;8.308;2023-04-03T07:44:25;3.00;;;2.00;;
12556;SDS011;6344;49.932;8.308;2023-04-03T07:46:52;3.70;;;2.53;;
12556;SDS011;6344;49.932;8.308;2023-04-03T07:49:21;3.63;;;2.70;;
12556;SDS011;6344;49.932;8.308;2023-04-03T07:51:49;4.53;;;2.20;;
12556;SDS011;6344;49.932;8.308;2023-04-03T07:54:16;3.40;;;2.80;;
12556;SDS011;6344;49.932;8.308;2023-04-03T07:56:43;3.13;;;2.80;;
12556;SDS011;6344;49.932;8.308;2023-04-03T07:59:10;6.40;;;2.93;;
12556;SDS011;6344;49.932;8.308;2023-04-03T08:01:37;3.43;;;2.17;;
12556;SDS011;6344;49.932;8.308;2023-04-03T08:04:03;4.03;;;2.30;;
12556;SDS011;6344;49.932;8.308;2023-04-03T08:06:33;3.70;;;2.50;;
12556;SDS011;6344;49.932;8.308;2023-04-03T08:09:01;3.90;;;2.40;;
12556;SDS011;6344;49.932;8.308;2023-04-03T08:11:29;5.77;;;2.77;;
12556;SDS011;6344;49.932;8.308;2023-04-03T08:13:56;2.77;;;2.53;;
12556;SDS011;6344;49.932;8.308;2023-04-03T08:16:23;4.27;;;2.77;;
12556;SDS011;6344;49.932;8.308;2023-04-03T08:18:51;5.93;;;2.90;;
12556;SDS011;6344;49.932;8.308;2023-04-03T08:21:18;2.87;;;2.67;;
12556;SDS011;6344;49.932;8.308;2023-04-03T08:23:47;5.57;;;3.17;;
12556;SDS011;6344;49.932;8.308;2023-04-03T08:26:16;3.30;;;2.80;;
12556;SDS011;6344;49.932;8.308;2023-04-03T08:28:43;2.83;;;2.60;;
12556;SDS011;6344;49.932;8.308;2023-04-03T08:31:11;3.00;;;2.70;;
12556;SDS011;6344;49.932;8.308;2023-04-03T08:33:40;3.43;;;2.63;;
12556;SDS011;6344;49.932;8.308;2023-04-03T08:36:08;2.47;;;2.27;;
12556;SDS011;6344;49.932;8.308;2023-04-03T08:38:46;5.63;;;2.90;;
12556;SDS011;6344;49.932;8.308;2023-04-03T08:41:14;2.60;;;2.40;;
12556;SDS011;6344;49.932;8.308;2023-04-03T08:43:50;3.97;;;3.60;;
12556;SDS011;6344;49.932;8.308;2023-04-03T08:46:23;2.47;;;2.17;;
12556;SDS011;6344;49.932;8.308;2023-04-03T08:48:54;2.03;;;1.83;;
12556;SDS011;6344;49.932;8.308;2023-04-03T08:51:24;4.13;;;2.70;;
12556;SDS011;6344;49.932;8.308;2023-04-03T08:53:54;4.60;;;2.73;;
12556;SDS011;6344;49.932;8.308;2023-04-03T08:56:27;7.87;;;2.60;;
12556;SDS011;6344;49.932;8.308;2023-04-03T08:58:55;3.10;;;2.90;;
12556;SDS011;6344;49.932;8.308;2023-04-03T09:01:24;2.73;;;2.53;;
12556;SDS011;6344;49.932;8.308;2023-04-03T09:03:56;6.27;;;1.73;;
12556;SDS011;6344;49.932;8.308;2023-04-03T09:06:23;2.37;;;2.10;;
12556;SDS011;6344;49.932;8.308;2023-04-03T09:08:57;2.30;;;2.03;;
12556;SDS011;6344;49.932;8.308;2023-04-03T09:11:40;2.70;;;2.50;;
12556;SDS011;6344;49.932;8.308;2023-04-03T09:14:13;4.60;;;3.20;;
12556;SDS011;6344;49.932;8.308;2023-04-03T09:16:47;2.47;;;2.27;;
12556;SDS011;6344;49.932;8.308;2023-04-03T09:19:21;3.70;;;2.27;;
12556;SDS011;6344;49.932;8.308;2023-04-03T09:21:55;2.67;;;2.00;;
12556;SDS011;6344;49.932;8.308;2023-04-03T09:24:24;5.70;;;2.30;;
12556;SDS011;6344;49.932;8.308;2023-04-03T09:26:51;2.90;;;2.60;;
12556;SDS011;6344;49.932;8.308;2023-04-03T09:29:24;9.13;;;3.17;;
12556;SDS011;6344;49.932;8.308;2023-04-03T09:31:52;2.60;;;2.40;;
12556;SDS011;6344;49.932;8.308;2023-04-03T09:34:24;4.87;;;2.80;;
12556;SDS011;6344;49.932;8.308;2023-04-03T09:36:53;5.40;;;2.80;;
12556;SDS011;6344;49.932;8.308;2023-04-03T09:39:21;2.30;;;2.03;;
12556;SDS011;6344;49.932;8.308;2023-04-03T09:41:56;3.63;;;2.03;;
12556;SDS011;6344;49.932;8.308;2023-04-03T09:44:28;2.47;;;2.27;;
12556;SDS011;6344;49.932;8.308;2023-04-03T09:47:16;5.07;;;1.90;;
12556;SDS011;6344;49.932;8.308;2023-04-03T09:49:45;3.30;;;2.93;;
12556;SDS011;6344;49.932;8.308;2023-04-03T09:52:18;6.57;;;2.63;;
12556;SDS011;6344;49.932;8.308;2023-04-03T09:54:47;3.77;;;2.30;;
12556;SDS011;6344;49.932;8.308;2023-04-03T09:57:14;3.43;;;2.37;;
12556;SDS011;6344;49.932;8.308;2023-04-03T09:59:45;3.20;;;2.80;;
12556;SDS011;6344;49.932;8.308;2023-04-03T10:02:20;2.90;;;2.07;;
12556;SDS011;6344;49.932;8.308;2023-04-03T10:08:06;2.00;;;1.60;;
12556;SDS011;6344;49.932;8.308;2023-04-03T10:10:36;4.90;;;2.67;;
12556;SDS011;6344;49.932;8.308;2023-04-03T10:13:05;2.57;;;2.00;;
12556;SDS011;6344;49.932;8.308;2023-04-03T10:15:34;2.30;;;2.10;;
12556;SDS011;6344;49.932;8.308;2023-04-03T10:18:07;4.50;;;1.60;;
12556;SDS011;6344;49.932;8.308;2023-04-03T10:20:47;3.10;;;1.50;;
12556;SDS011;6344;49.932;8.308;2023-04-03T10:23:17;2.77;;;2.03;;
12556;SDS011;6344;49.932;8.308;2023-04-03T10:25:50;6.20;;;2.77;;
12556;SDS011;6344;49.932;8.308;2023-04-03T10:28:27;3.80;;;2.13;;
12556;SDS011;6344;49.932;8.308;2023-04-03T10:30:58;2.90;;;2.00;;
12556;SDS011;6344;49.932;8.308;2023-04-03T10:33:39;3.63;;;2.47;;
12556;SDS011;6344;49.932;8.308;2023-04-03T10:36:19;3.03;;;1.80;;
12556;SDS011;6344;49.932;8.308;2023-04-03T10:38:57;2.90;;;2.37;;
12556;SDS011;6344;49.932;8.308;2023-04-03T10:41:31;2.67;;;2.47;;
12556;SDS011;6344;49.932;8.308;2023-04-03T10:44:07;3.10;;;2.80;;
12556;SDS011;6344;49.932;8.308;2023-04-03T10:46:41;2.63;;;2.43;;
12556;SDS011;6344;49.932;8.308;2023-04-03T10:49:16;3.10;;;2.90;;
12556;SDS011;6344;49.932;8.308;2023-04-03T10:51:54;4.47;;;2.67;;
12556;SDS011;6344;49.932;8.308;2023-04-03T10:54:30;2.90;;;2.60;;
12556;SDS011;6344;49.932;8.308;2023-04-03T10:57:04;2.90;;;2.60;;
12556;SDS011;6344;49.932;8.308;2023-04-03T10:59:33;4.77;;;2.80;;
12556;SDS011;6344;49.932;8.308;2023-04-03T11:02:06;3.80;;;3.00;;
12556;SDS011;6344;49.932;8.308;2023-04-03T11:04:38;3.40;;;3.20;;
12556;SDS011;6344;49.932;8.308;2023-04-03T11:07:07;3.50;;;2.53;;
12556;SDS011;6344;49.932;8.308;2023-04-03T11:09:37;3.17;;;2.97;;
12556;SDS011;6344;49.932;8.308;2023-04-03T11:12:09;3.00;;;2.63;;
12556;SDS011;6344;49.932;8.308;2023-04-03T11:14:40;3.30;;;3.10;;
12556;SDS011;6344;49.932;8.308;2023-04-03T11:17:14;3.70;;;2.40;;
12556;SDS011;6344;49.932;8.308;2023-04-03T11:19:49;3.67;;;3.13;;
12556;SDS011;6344;49.932;8.308;2023-04-03T11:22:23;3.00;;;2.60;;
12556;SDS011;6344;49.932;8.308;2023-04-03T11:24:55;5.90;;;2.73;;
12556;SDS011;6344;49.932;8.308;2023-04-03T11:27:26;2.90;;;2.70;;
12556;SDS011;6344;49.932;8.308;2023-04-03T11:29:57;3.63;;;2.07;;
12556;SDS011;6344;49.932;8.308;2023-04-03T11:32:32;2.40;;;2.20;;
12556;SDS011;6344;49.932;8.308;2023-04-03T11:35:16;2.87;;;2.67;;
12556;SDS011;6344;49.932;8.308;2023-04-03T11:37:44;3.20;;;2.90;;
12556;SDS011;6344;49.932;8.308;2023-04-03T11:40:19;2.63;;;2.43;;
12556;SDS011;6344;49.932;8.308;2023-04-03T11:42:53;2.90;;;2.70;;
12556;SDS011;6344;49.932;8.308;2023-04-03T11:45:30;3.67;;;3.40;;
12556;SDS011;6344;49.932;8.308;2023-04-03T11:48:00;3.20;;;2.00;;
12556;SDS011;6344;49.932;8.308;2023-04-03T11:53:25;4.10;;;3.50;;
12556;SDS011;6344;49.932;8.308;2023-04-03T11:55:55;4.73;;;3.23;;
12556;SDS011;6344;49.932;8.308;2023-04-03T11:58:25;3.30;;;2.50;;
12556;SDS011;6344;49.932;8.308;2023-04-03T12:00:57;4.60;;;4.20;;
12556;SDS011;6344;49.932;8.308;2023-04-03T12:06:47;3.43;;;3.13;;
12556;SDS011;6344;49.932;8.308;2023-04-03T12:12:28;2.33;;;2.23;;
12556;SDS011;6344;49.932;8.308;2023-04-03T12:17:50;3.93;;;2.90;;
12556;SDS011;6344;49.932;8.308;2023-04-03T12:23:25;3.40;;;3.10;;
12556;SDS011;6344;49.932;8.308;2023-04-03T12:25:59;2.87;;;2.67;;
12556;SDS011;6344;49.932;8.308;2023-04-03T12:28:34;3.27;;;2.33;;
12556;SDS011;6344;49.932;8.308;2023-04-03T12:31:04;2.50;;;2.30;;
12556;SDS011;6344;49.932;8.308;2023-04-03T12:33:34;2.37;;;2.17;;
12556;SDS011;6344;49.932;8.308;2023-04-03T12:36:10;2.30;;;2.20;;
12556;SDS011;6344;49.932;8.308;2023-04-03T12:38:41;2.70;;;2.50;;
12556;SDS011;6344;49.932;8.308;2023-04-03T12:41:24;3.97;;;2.50;;
12556;SDS011;6344;49.932;8.308;2023-04-03T12:44:02;3.70;;;2.60;;
12556;SDS011;6344;49.932;8.308;2023-04-03T12:46:42;2.13;;;1.93;;
12556;SDS011;6344;49.932;8.308;2023-04-03T12:49:14;2.63;;;2.40;;
12556;SDS011;6344;49.932;8.308;2023-04-03T12:51:50;2.42;;;2.22;;
12556;SDS011;6344;49.932;8.308;2023-04-03T12:54:18;3.40;;;3.10;;
12556;SDS011;6344;49.932;8.308;2023-04-03T12:59:45;2.93;;;2.60;;
12556;SDS011;6344;49.932;8.308;2023-04-03T13:02:19;3.10;;;2.00;;
12556;SDS011;6344;49.932;8.308;2023-04-03T13:04:50;2.17;;;1.97;;
12556;SDS011;6344;49.932;8.308;2023-04-03T13:07:21;3.00;;;2.67;;
12556;SDS011;6344;49.932;8.308;2023-04-03T13:09:55;3.03;;;2.83;;
12556;SDS011;6344;49.932;8.308;2023-04-03T13:12:24;6.60;;;3.27;;
12556;SDS011;6344;49.932;8.308;2023-04-03T13:14:52;2.58;;;2.45;;
12556;SDS011;6344;49.932;8.308;2023-04-03T13:17:19;3.73;;;3.43;;
12556;SDS011;6344;49.932;8.308;2023-04-03T13:19:47;3.83;;;3.50;;
12556;SDS011;6344;49.932;8.308;2023-04-03T13:22:19;3.10;;;2.80;;
12556;SDS011;6344;49.932;8.308;2023-04-03T13:24:51;3.50;;;3.20;;
12556;SDS011;6344;49.932;8.308;2023-04-03T13:27:19;6.10;;;2.80;;
12556;SDS011;6344;49.932;8.308;2023-04-03T13:29:49;3.63;;;2.53;;
12556;SDS011;6344;49.932;8.308;2023-04-03T13:32:18;4.90;;;2.80;;
12556;SDS011;6344;49.932;8.308;2023-04-03T13:34:47;4.30;;;2.73;;
12556;SDS011;6344;49.932;8.308;2023-04-03T13:37:23;3.67;;;3.40;;
12556;SDS011;6344;49.932;8.308;2023-04-03T13:40:01;3.63;;;3.40;;
12556;SDS011;6344;49.932;8.308;2023-04-03T13:42:30;3.87;;;2.80;;
12556;SDS011;6344;49.932;8.308;2023-04-03T13:45:16;2.90;;;2.70;;
12556;SDS011;6344;49.932;8.308;2023-04-03T13:47:46;3.13;;;2.80;;
12556;SDS011;6344;49.932;8.308;2023-04-03T13:50:15;6.63;;;3.10;;
12556;SDS011;6344;49.932;8.308;2023-04-03T13:52:46;2.40;;;2.20;;
12556;SDS011;6344;49.932;8.308;2023-04-03T13:55:17;3.93;;;3.53;;
12556;SDS011;6344;49.932;8.308;2023-04-03T13:57:51;2.58;;;2.35;;
12556;SDS011;6344;49.932;8.308;2023-04-03T14:00:20;2.03;;;1.90;;
12556;SDS011;6344;49.932;8.308;2023-04-03T14:02:54;2.53;;;2.33;;
12556;SDS011;6344;49.932;8.308;2023-04-03T14:05:22;3.10;;;2.83;;
12556;SDS011;6344;49.932;8.308;2023-04-03T14:07:51;6.37;;;2.47;;
12556;SDS011;6344;49.932;8.308;2023-04-03T14:10:19;3.10;;;2.80;;
12556;SDS011;6344;49.932;8.308;2023-04-03T14:12:45;3.28;;;2.97;;
12556;SDS011;6344;49.932;8.308;2023-04-03T14:15:16;3.40;;;3.10;;
12556;SDS011;6344;49.932;8.308;2023-04-03T14:17:45;4.30;;;3.80;;
12556;SDS011;6344;49.932;8.308;2023-04-03T14:20:14;2.60;;;2.40;;
12556;SDS011;6344;49.932;8.308;2023-04-03T14:22:41;4.45;;;3.15;;
12556;SDS011;6344;49.932;8.308;2023-04-03T14:25:10;5.45;;;3.42;;
12556;SDS011;6344;49.932;8.308;2023-04-03T14:27:37;5.03;;;2.00;;
12556;SDS011;6344;49.932;8.308;2023-04-03T14:30:06;2.90;;;2.50;;
12556;SDS011;6344;49.932;8.308;2023-04-03T14:32:35;3.50;;;3.07;;
12556;SDS011;6344;49.932;8.308;2023-04-03T14:35:02;3.80;;;3.50;;
12556;SDS011;6344;49.932;8.308;2023-04-03T14:37:30;3.40;;;3.00;;
12556;SDS011;6344;49.932;8.308;2023-04-03T14:39:57;4.63;;;3.10;;
12556;SDS011;6344;49.932;8.308;2023-04-03T14:42:27;2.77;;;2.57;;
12556;SDS011;6344;49.932;8.308;2023-04-03T14:44:56;3.10;;;2.80;;
12556;SDS011;6344;49.932;8.308;2023-04-03T14:47:24;3.33;;;2.90;;
12556;SDS011;6344;49.932;8.308;2023-04-03T14:49:53;3.67;;;2.50;;
12556;SDS011;6344;49.932;8.308;2023-04-03T14:52:21;3.50;;;3.20;;
12556;SDS011;6344;49.932;8.308;2023-04-03T14:54:50;2.77;;;2.17;;
12556;SDS011;6344;49.932;8.308;2023-04-03T14:57:17;3.00;;;2.60;;
12556;SDS011;6344;49.932;8.308;2023-04-03T14:59:46;3.60;;;3.30;;
12556;SDS011;6344;49.932;8.308;2023-04-03T15:02:20;4.78;;;3.47;;
12556;SDS011;6344;49.932;8.308;2023-04-03T15:04:51;2.70;;;2.50;;
12556;SDS011;6344;49.932;8.308;2023-04-03T15:07:18;5.23;;;2.83;;
12556;SDS011;6344;49.932;8.308;2023-04-03T15:09:45;6.40;;;3.57;;
12556;SDS011;6344;49.932;8.308;2023-04-03T15:12:12;2.05;;;1.90;;
12556;SDS011;6344;49.932;8.308;2023-04-03T15:14:39;2.40;;;2.20;;
12556;SDS011;6344;49.932;8.308;2023-04-03T15:17:08;3.93;;;2.27;;
12556;SDS011;6344;49.932;8.308;2023-04-03T15:19:39;3.40;;;3.10;;
12556;SDS011;6344;49.932;8.308;2023-04-03T15:22:06;4.30;;;3.30;;
12556;SDS011;6344;49.932;8.308;2023-04-03T15:24:35;2.97;;;2.77;;
12556;SDS011;6344;49.932;8.308;2023-04-03T15:27:02;2.20;;;2.00;;
12556;SDS011;6344;49.932;8.308;2023-04-03T15:29:29;4.10;;;3.70;;
12556;SDS011;6344;49.932;8.308;2023-04-03T15:31:55;3.77;;;2.40;;
12556;SDS011;6344;49.932;8.308;2023-04-03T15:34:23;2.87;;;2.57;;